This is the latest recevied weather packets stored in our database for station/object N0ZMJ-4. If no packets are shown the sender has not sent any weather packets the latest 10 day(s).
| Time | Temp. | Humidity | Pressure | Rain* | Wind** | Luminosity | Snow |
|---|---|---|---|---|---|---|---|
| 1777567503 | 8.89° C | 60% | 1018.4 hPa | 0 mm | - | - | - |
| 1777567203 | 8.89° C | 63% | 1018.4 hPa | 0 mm | - | - | - |
| 1777566904 | 8.89° C | 62% | 1018.5 hPa | 0 mm | - | - | - |
| 1777566603 | 8.33° C | 66% | 1018.5 hPa | 0 mm | - | - | - |
| 1777566303 | 8.33° C | 63% | 1018.6 hPa | 0 mm | - | - | - |
| 1777566003 | 7.78° C | 64% | 1018.6 hPa | 0 mm | - | - | - |
| 1777565703 | 7.78° C | 65% | 1018.6 hPa | 0 mm | - | - | - |
| 1777565403 | 7.78° C | 63% | 1018.6 hPa | 0 mm | - | - | - |
| 1777565103 | 7.78° C | 63% | 1018.6 hPa | 0 mm | - | - | - |
| 1777564803 | 7.22° C | 63% | 1018.7 hPa | 0 mm | - | - | - |
| 1777564503 | 7.22° C | 63% | 1018.6 hPa | 0 mm | - | - | - |
| 1777564203 | 7.22° C | 65% | 1018.5 hPa | 0 mm | - | - | - |
| 1777563903 | 7.22° C | 68% | 1018.5 hPa | 0 mm | - | - | - |
| 1777563603 | 7.22° C | 67% | 1018.7 hPa | 0 mm | - | - | - |
| 1777563303 | 6.67° C | 66% | 1018.8 hPa | 0 mm | - | - | - |
| 1777563003 | 6.67° C | 67% | 1018.7 hPa | 0 mm | - | - | - |
| 1777562703 | 6.67° C | 69% | 1018.7 hPa | 0 mm | - | - | - |
| 1777562404 | 6.67° C | 67% | 1018.6 hPa | 0 mm | - | - | - |
| 1777562103 | 6.67° C | 72% | 1018.4 hPa | 0 mm | - | - | - |
| 1777561803 | 6.67° C | 73% | 1018.3 hPa | 0 mm | - | - | - |
| 1777561503 | 6.11° C | 72% | 1018.5 hPa | 0 mm | - | - | - |
| 1777561203 | 6.11° C | 74% | 1018.4 hPa | 0 mm | - | - | - |
| 1777560903 | 5.56° C | 75% | 1018.3 hPa | 0 mm | - | - | - |
| 1777560603 | 5.56° C | 72% | 1018.4 hPa | 0 mm | - | - | - |
| 1777560303 | 5.56° C | 73% | 1018.4 hPa | 0 mm | - | - | - |
* Rain latest hour (hover to see other rain measurements)
** Current wind speed in m/s (hover to see current wind gust speed)